This is the latest recevied weather packets stored in our database for station/object DH3PAE-6. If no packets are shown the sender has not sent any weather packets the latest 10 day(s).
| Time | Temp. | Humidity | Pressure | Rain* | Wind** | Luminosity | Snow |
|---|---|---|---|---|---|---|---|
| 1777767497 | 10.56° C | 94% | 1013.8 hPa | 0 mm | - | 0 W/m² | - |
| 1777762097 | 10.56° C | 97% | 1014.4 hPa | 0 mm | - | 0 W/m² | - |
| 1777759697 | 11.11° C | 97% | 1014.5 hPa | 0 mm | - | 0 W/m² | - |
| 1777757897 | 11.67° C | 97% | 1014.7 hPa | 0 mm | - | 0 W/m² | - |
| 1777756697 | 10.56° C | 96% | 1014.7 hPa | 0 mm | - | 0 W/m² | - |
| 1777754897 | 11.67° C | 96% | 1014.7 hPa | 0 mm | - | 0 W/m² | - |
| 1777751297 | 12.78° C | 96% | 1014.9 hPa | 0 mm | - | 0 W/m² | - |
| 1777750097 | 13.89° C | 95% | 1014.9 hPa | 0 mm | - | 0 W/m² | - |
| 1777748900 | 14.44° C | 96% | 1014.8 hPa | 0 mm | - | 0 W/m² | - |
| 1777748297 | 15° C | 95% | 1014.8 hPa | 0 mm | - | 0 W/m² | - |
| 1777742317 | 16.67° C | 87% | 1014.4 hPa | 0.76 mm | - | 37 W/m² | - |
| 1777738096 | 20.56° C | 63% | 1015.4 hPa | 0 mm | - | 109 W/m² | - |
| 1777737497 | 20.56° C | 62% | 1015.4 hPa | 0 mm | - | 90 W/m² | - |
| 1777727919 | 23.33° C | 50% | 1016.7 hPa | 0 mm | - | 664 W/m² | - |
| 1777726096 | 23.89° C | 45% | 1017 hPa | 0 mm | - | 786 W/m² | - |
| 1777725496 | 23.33° C | 44% | 1017.1 hPa | 0 mm | - | 336 W/m² | - |
| 1777721296 | 23.33° C | 46% | 1018.2 hPa | 0 mm | - | 879 W/m² | - |
| 1777716539 | 21.11° C | 49% | 1019.1 hPa | 0 mm | - | 283 W/m² | - |
| 1777713496 | 21.67° C | 48% | 1019.4 hPa | 0 mm | - | 714 W/m² | - |
| 1777708136 | 17.78° C | 50% | 1019.7 hPa | 0 mm | - | 455 W/m² | - |
| 1777707499 | 17.22° C | 46% | 1019.8 hPa | 0 mm | - | 309 W/m² | - |
| 1777702696 | 15° C | 52% | 1020.6 hPa | 0 mm | - | 264 W/m² | - |
| 1777702099 | 14.44° C | 52% | 1020.6 hPa | 0 mm | - | 188 W/m² | - |
| 1777700899 | 13.33° C | 55% | 1020.7 hPa | 0 mm | - | 78 W/m² | - |
| 1777700296 | 13.33° C | 55% | 1020.5 hPa | 0 mm | - | 84 W/m² | - |
* Rain latest hour (hover to see other rain measurements)
** Current wind speed in m/s (hover to see current wind gust speed)